Time;durP1;ratioP1;P1;durP2;ratioP2;P2;SDS_P1;SDS_P2;PMS_P1;PMS_P2;Temp;Humidity;BMP_temperature;BMP_pressure;BME280_temperature;BME280_humidity;BME280_pressure;Samples;Min_cycle;Max_cycle;Signal;HPM_P1;HPM_P2
2023/05/25 04:27:13;;;;;;;51.00;26.50;;;;;;;;;;10389859;22;20057;-91
2023/05/25 04:31:18;;;;;;;55.58;25.15;;;;;;;;;;10362680;22;20094;-92
2023/05/25 08:55:21;;;;;;;26.45;15.13;;;;;;;;;;10371415;22;20441;-88
2023/05/25 08:59:32;;;;;;;29.00;15.45;;;;;;;;;;10336305;23;20024;-89
2023/05/25 09:03:37;;;;;;;22.80;14.48;;;;;;;;;;10355753;23;20507;-89
2023/05/25 09:07:41;;;;;;;25.52;13.93;;;;;;;;;;10336009;23;20012;-88
2023/05/25 09:11:47;;;;;;;21.08;13.57;;;;;;;;;;10334346;23;20031;-89
2023/05/25 15:24:41;;;;;;;15.10;10.75;;;;;;;;;;10390251;22;20091;-88
2023/05/25 15:28:47;;;;;;;16.27;10.68;;;;;;;;;;10388313;22;20020;-88
2023/05/25 15:32:53;;;;;;;13.10;10.85;;;;;;;;;;10365243;22;20090;-89
2023/05/25 15:36:57;;;;;;;11.73;10.23;;;;;;;;;;10367836;22;20019;-89
2023/05/25 15:41:06;;;;;;;13.90;10.63;;;;;;;;;;10362782;22;20015;-89
2023/05/25 15:45:12;;;;;;;14.02;10.85;;;;;;;;;;10363515;22;20019;-88
2023/05/25 15:49:18;;;;;;;18.70;11.00;;;;;;;;;;10363110;22;20023;-89
2023/05/25 15:53:24;;;;;;;20.23;10.32;;;;;;;;;;10363587;22;20020;-88
2023/05/25 15:57:33;;;;;;;13.20;10.00;;;;;;;;;;10362879;22;20091;-88
2023/05/25 16:01:38;;;;;;;17.80;9.73;;;;;;;;;;10362770;22;20015;-88
2023/05/25 16:05:44;;;;;;;19.85;10.55;;;;;;;;;;10362803;22;20078;-88
2023/05/25 16:09:48;;;;;;;13.45;9.88;;;;;;;;;;10362426;22;20027;-88
2023/05/25 16:13:56;;;;;;;14.32;10.13;;;;;;;;;;10361852;22;20024;-89
2023/05/25 16:18:02;;;;;;;17.08;10.20;;;;;;;;;;10362148;22;20016;-89
2023/05/25 16:22:08;;;;;;;18.35;10.93;;;;;;;;;;10362719;22;20016;-89
2023/05/25 16:26:14;;;;;;;18.65;10.93;;;;;;;;;;10362573;22;20069;-89
2023/05/25 16:30:21;;;;;;;17.38;10.35;;;;;;;;;;10361925;22;20336;-89
2023/05/25 16:34:25;;;;;;;16.27;10.75;;;;;;;;;;10362659;22;20023;-87
2023/05/25 16:38:28;;;;;;;16.83;10.63;;;;;;;;;;10362464;22;20443;-89
2023/05/25 16:42:32;;;;;;;11.32;9.52;;;;;;;;;;10360708;22;20020;-89
2023/05/25 16:46:42;;;;;;;20.85;10.88;;;;;;;;;;10362836;22;20023;-90
2023/05/25 16:50:46;;;;;;;16.38;10.98;;;;;;;;;;10361285;22;20034;-90
2023/05/25 16:54:52;;;;;;;14.98;11.02;;;;;;;;;;10361248;22;20020;-90
2023/05/25 16:58:56;;;;;;;18.67;11.48;;;;;;;;;;10361939;22;20028;-91
2023/05/25 17:03:06;;;;;;;16.50;12.05;;;;;;;;;;10362324;22;20371;-90
2023/05/25 17:07:12;;;;;;;15.20;10.85;;;;;;;;;;10361807;22;20470;-91
2023/05/25 17:11:18;;;;;;;16.00;11.80;;;;;;;;;;10361443;22;20015;-91
2023/05/25 17:15:23;;;;;;;17.75;11.35;;;;;;;;;;10361906;22;20020;-90
2023/05/25 17:19:30;;;;;;;17.35;11.52;;;;;;;;;;10361509;22;20026;-90
2023/05/25 22:12:05;;;;;;;37.67;25.23;;;;;;;;;;10392177;22;20045;-93
2023/05/25 22:16:08;;;;;;;39.97;25.77;;;;;;;;;;10441092;22;20019;-91
2023/05/25 22:20:12;;;;;;;47.20;27.52;;;;;;;;;;10424352;22;20023;-92
2023/05/25 22:24:15;;;;;;;37.58;25.00;;;;;;;;;;10405125;22;20102;-92
2023/05/25 22:28:26;;;;;;;39.25;25.58;;;;;;;;;;10399518;22;20086;-91
